Accueil
METAR-TAF:

METAR-TAF

Aéroports :

Aéroport d'Antioche

Antioche, Turquie

latitude: 36-21-46N, longitude: 36-16-56E, altitude: 1950 m

Observation

Le bulletin a été fait il y a 48 minutes, à 14:50 UTC
Vent 11 kt de ouest, variant entre ouest/sud-ouest et nord-ouest
Température 18°C
Humidité 28%
Pression 1011 hPa
Visibilité 10 km ou plus
Quelques nuages à une hauteur de 3500 ft

METAR: LTDA 251450Z 27011KT 250V310 9999 FEW035 18/M01 Q1011 NOSIG

Heure: 18:38 (15:38 UTC)

Prévision

Le bulletin a été fait il y a 1 heure et 58 minutes, à 13:40 UTC
Prévision valable du 25 à 15 UTC au 25 à 24 UTC
Vent 10 kt de ouest/nord-ouest
Visibilité 10 km ou plus
Quelques nuages à une hauteur de 3500 ft

TAF: LTDA 251340Z 2515/2524 30010KT 9999 FEW035

Observations et prévisions météorologiques de plus de 4000 aéroports (messages METAR et TAF).

Les stations disponibles sont représentées par des disques jaunes et rouges sur la carte.

Passer la souris dessus pour voir le nom de la station.

Cliquer dessus pour voir les observations et prévisions météorologiques.

Pour changer de carte: cliquez sur les boutons verts avec une croix noire pour zoomer, sur le bouton vert avec un tiret pour effectuer un zoom arrière, ou sur les flèches vertes pour les cartes adjacentes.


METAR-TAF: